OTP weather

Henri Coandă International Airport
Bucharest, Bucureşti, Romania

Public forecast

Using degrees Celsius for public forecast. Weather courtesy of forecast.io.

METAR (pilot weather report)

Retrieved 2019/04/21 12:30 UTC (0 seconds ago):

LROP 211230Z 27010KT 9999 -RA NSC 15/06 Q1021 R88/19//95 NOSIG

TAF (pilot weather forecast)

Retrieved 2019/04/21 12:33 UTC (0 seconds ago):

TAF LROP 211100Z 2112/2212 25010KT CAVOK BECMG 2113/2115 VRB04KT TEMPO 2113/2116 SCT040CB TEMPO 2200/2206 5000 -RA -SHRA BKN015 SCT040CB BKN045 BECMG 2207/2209 08010KT